Time;durP1;ratioP1;P1;durP2;ratioP2;P2;SDS_P1;SDS_P2;PMS_P1;PMS_P2;Temp;Humidity;BMP_temperature;BMP_pressure;BME280_temperature;BME280_humidity;BME280_pressure;Samples;Min_cycle;Max_cycle;Signal;HPM_P1;HPM_P2
2022/04/03 00:00:32;;;;;;;5.18;1.60;;;0.30;93.40;;;;;;5030488;28;20110;-81
2022/04/03 00:03:03;;;;;;;6.25;1.60;;;0.30;93.60;;;;;;5013987;28;20052;-81
2022/04/03 00:05:29;;;;;;;6.90;1.70;;;0.30;93.50;;;;;;5030434;28;20072;-81
2022/04/03 00:07:56;;;;;;;6.07;1.92;;;0.20;93.60;;;;;;5013938;28;20072;-81
2022/04/03 00:10:22;;;;;;;6.70;2.10;;;0.20;93.60;;;;;;5030139;28;20041;-82
2022/04/03 00:12:48;;;;;;;6.15;2.00;;;0.20;93.70;;;;;;5013732;28;20124;-82
2022/04/03 00:15:14;;;;;;;7.57;1.85;;;0.20;93.70;;;;;;5030122;28;20128;-81
2022/04/03 00:17:41;;;;;;;6.00;2.00;;;0.20;93.70;;;;;;5030506;28;20077;-81
2022/04/03 00:20:08;;;;;;;5.13;1.80;;;0.10;93.90;;;;;;5013713;28;20433;-82
2022/04/03 00:22:34;;;;;;;12.98;3.00;;;0.10;93.90;;;;;;5030328;28;20136;-82
2022/04/03 00:25:00;;;;;;;5.75;2.53;;;0.10;94.10;;;;;;5030143;28;20555;-82
2022/04/03 00:27:25;;;;;;;4.90;1.90;;;0.10;94.30;;;;;;5030007;28;20103;-81
2022/04/03 00:29:51;;;;;;;6.82;2.17;;;0.10;94.60;;;;;;5013776;28;20049;-81
2022/04/03 00:32:16;;;;;;;4.93;1.67;;;0.00;94.40;;;;;;5029875;28;20129;-81
2022/04/03 00:34:42;;;;;;;6.20;1.95;;;0.00;94.50;;;;;;5030406;28;20124;-81
2022/04/03 00:37:07;;;;;;;6.00;1.98;;;0.00;94.70;;;;;;5029792;28;20041;-81
2022/04/03 00:39:33;;;;;;;5.85;2.17;;;0.00;94.70;;;;;;5029804;28;20092;-81
2022/04/03 00:41:59;;;;;;;5.43;1.88;;;0.00;94.80;;;;;;5029880;28;20042;-82
2022/04/03 00:44:24;;;;;;;5.50;2.20;;;-0.10;94.70;;;;;;5030245;28;20406;-81
2022/04/03 00:46:51;;;;;;;6.30;2.10;;;-0.10;94.70;;;;;;5030011;28;20083;-81
2022/04/03 00:49:16;;;;;;;6.32;1.90;;;-0.10;95.10;;;;;;5029981;28;20133;-81
2022/04/03 00:51:42;;;;;;;5.22;1.90;;;-0.10;95.10;;;;;;5029341;28;20125;-81
2022/04/03 00:54:08;;;;;;;7.03;2.13;;;-0.10;95.10;;;;;;5030150;28;20064;-81
2022/04/03 00:56:34;;;;;;;6.25;2.00;;;-0.10;95.20;;;;;;5013501;28;20103;-81
2022/04/03 00:59:00;;;;;;;6.78;2.58;;;-0.10;95.30;;;;;;5030630;28;20041;-82
2022/04/03 01:01:26;;;;;;;7.65;2.45;;;-0.10;95.60;;;;;;5033266;28;20414;-81
2022/04/03 01:03:51;;;;;;;7.45;2.00;;;-0.10;95.70;;;;;;5033615;28;20045;-82
2022/04/03 01:06:17;;;;;;;5.32;1.98;;;-0.10;96.00;;;;;;5033357;28;20530;-81
2022/04/03 01:08:43;;;;;;;6.35;2.45;;;-0.10;96.20;;;;;;5033416;28;20049;-81
2022/04/03 01:11:13;;;;;;;10.07;3.03;;;-0.10;96.20;;;;;;5032725;28;20045;-81
2022/04/03 01:13:49;;;;;;;7.97;2.42;;;-0.10;96.10;;;;;;5033405;28;20040;-82
2022/04/03 01:16:15;;;;;;;6.28;2.35;;;-0.10;96.40;;;;;;5033531;28;20052;-82
2022/04/03 01:18:41;;;;;;;6.75;2.38;;;-0.10;96.40;;;;;;5016789;28;20446;-81
2022/04/03 01:21:07;;;;;;;8.18;2.40;;;-0.10;96.40;;;;;;5032582;28;20041;-82
2022/04/03 01:23:33;;;;;;;7.22;2.60;;;-0.10;96.20;;;;;;5033125;28;20044;-82
2022/04/03 01:25:58;;;;;;;6.22;2.38;;;-0.10;96.20;;;;;;5033229;28;20088;-81
2022/04/03 01:28:24;;;;;;;7.15;2.60;;;0.00;96.30;;;;;;5032899;28;20042;-81
2022/04/03 01:30:50;;;;;;;7.85;2.53;;;0.00;96.50;;;;;;5032684;28;20457;-81
2022/04/03 01:33:17;;;;;;;7.97;2.35;;;0.00;96.80;;;;;;5032688;28;20045;-81
2022/04/03 01:35:43;;;;;;;6.43;2.28;;;0.00;97.10;;;;;;5032848;28;20048;-81
2022/04/03 01:38:09;;;;;;;6.97;2.55;;;-0.10;97.30;;;;;;5033025;28;20041;-82
2022/04/03 01:40:35;;;;;;;7.30;2.33;;;-0.10;97.30;;;;;;5032849;28;20047;-81
2022/04/03 01:43:09;;;;;;;8.02;2.45;;;-0.20;97.70;;;;;;5009576;28;20120;-81
2022/04/03 01:45:36;;;;;;;8.38;2.55;;;-0.20;98.10;;;;;;5032725;28;20037;-81
2022/04/03 01:48:02;;;;;;;8.13;2.60;;;-0.20;98.30;;;;;;5032773;28;20517;-82
2022/04/03 01:50:28;;;;;;;7.72;2.78;;;-0.20;98.70;;;;;;5032492;28;20114;-81
2022/04/03 01:52:54;;;;;;;6.80;2.35;;;-0.20;98.80;;;;;;5032467;28;20487;-81
2022/04/03 01:55:20;;;;;;;5.35;2.00;;;-0.20;98.60;;;;;;5032531;28;20036;-81
2022/04/03 01:57:45;;;;;;;6.45;2.22;;;-0.20;98.50;;;;;;5032428;28;20406;-81
2022/04/03 02:00:12;;;;;;;5.50;2.20;;;-0.20;98.40;;;;;;5032315;28;20407;-81
2022/04/03 02:02:38;;;;;;;6.85;2.38;;;-0.30;98.30;;;;;;5032509;28;20041;-82
2022/04/03 02:05:05;;;;;;;7.90;2.80;;;-0.30;98.50;;;;;;5032375;28;20113;-81
2022/04/03 02:07:32;;;;;;;6.90;2.42;;;-0.40;98.40;;;;;;5032540;28;20064;-81
2022/04/03 02:10:02;;;;;;;7.80;2.20;;;-0.40;98.50;;;;;;5031959;28;20041;-81
2022/04/03 02:12:28;;;;;;;7.20;2.38;;;-0.40;98.60;;;;;;5014957;28;20041;-81
2022/04/03 02:14:54;;;;;;;6.40;2.13;;;-0.50;99.00;;;;;;5033572;28;20037;-81
2022/04/03 02:17:19;;;;;;;7.88;2.33;;;-0.50;99.50;;;;;;5032384;28;20491;-81
2022/04/03 02:19:45;;;;;;;6.60;2.28;;;-0.50;99.90;;;;;;5031736;28;20033;-81
2022/04/03 02:22:11;;;;;;;6.28;2.00;;;-0.60;99.80;;;;;;5032339;28;20037;-81
2022/04/03 02:24:36;;;;;;;6.32;2.45;;;-0.60;99.70;;;;;;5031974;28;20041;-81
2022/04/03 02:27:02;;;;;;;6.28;2.22;;;-0.60;99.90;;;;;;5015529;28;20049;-81
2022/04/03 02:29:27;;;;;;;6.65;2.33;;;-0.60;99.90;;;;;;5032010;28;20049;-81
2022/04/03 02:31:53;;;;;;;9.75;2.63;;;-0.60;99.90;;;;;;5031536;28;20046;-81
2022/04/03 02:34:19;;;;;;;7.82;2.60;;;-0.60;99.90;;;;;;5031989;28;20041;-81
2022/04/03 02:36:45;;;;;;;8.05;2.58;;;-0.50;99.90;;;;;;5031999;28;20041;-81
2022/04/03 02:39:12;;;;;;;8.98;2.80;;;-0.50;99.90;;;;;;5033087;28;20081;-81
2022/04/03 02:41:38;;;;;;;9.30;3.47;;;-0.50;99.90;;;;;;5030855;28;20042;-81
2022/04/03 02:44:04;;;;;;;7.85;2.78;;;-0.40;99.90;;;;;;5031913;28;20510;-81
2022/04/03 02:46:30;;;;;;;7.10;2.40;;;-0.40;99.90;;;;;;5031750;28;20529;-81
2022/04/03 02:48:56;;;;;;;7.82;3.55;;;-0.40;99.90;;;;;;5031623;28;20038;-81
2022/04/03 02:51:22;;;;;;;8.27;2.78;;;-0.40;99.90;;;;;;5014381;28;20037;-81
2022/04/03 02:53:48;;;;;;;6.57;3.25;;;-0.40;99.90;;;;;;5015330;28;20029;-81
2022/04/03 02:56:14;;;;;;;6.35;2.58;;;-0.40;99.90;;;;;;5031461;28;20560;-81
2022/04/03 02:58:40;;;;;;;6.43;2.55;;;-0.40;99.90;;;;;;5031221;28;20041;-81
2022/04/03 03:01:06;;;;;;;7.82;2.78;;;-0.40;99.90;;;;;;5031069;28;20077;-81
2022/04/03 03:03:32;;;;;;;8.27;2.55;;;-0.40;99.90;;;;;;5031570;28;20665;-81
2022/04/03 03:05:57;;;;;;;8.63;2.83;;;-0.40;99.90;;;;;;5031273;28;20052;-81
2022/04/03 03:08:23;;;;;;;6.60;2.72;;;-0.40;99.90;;;;;;5014707;28;20045;-81
2022/04/03 03:10:49;;;;;;;8.25;2.40;;;-0.50;99.90;;;;;;5030849;28;20085;-81
2022/04/03 03:13:14;;;;;;;7.05;2.42;;;-0.50;99.90;;;;;;5030959;28;20161;-81
2022/04/03 03:15:40;;;;;;;6.93;2.50;;;-0.50;99.90;;;;;;5014585;28;20037;-81
2022/04/03 03:18:06;;;;;;;8.60;2.42;;;-0.50;99.90;;;;;;5031119;28;20057;-81
2022/04/03 03:20:31;;;;;;;8.50;2.70;;;-0.50;99.90;;;;;;5014149;28;20099;-81
2022/04/03 03:22:57;;;;;;;6.65;2.42;;;-0.50;99.90;;;;;;5030762;28;20079;-81
2022/04/03 03:25:23;;;;;;;7.68;2.90;;;-0.60;99.90;;;;;;5031114;28;20080;-81
2022/04/03 03:27:49;;;;;;;8.45;2.67;;;-0.60;99.90;;;;;;5030777;28;20044;-81
2022/04/03 03:30:14;;;;;;;6.25;2.30;;;-0.70;99.90;;;;;;5013998;28;20041;-81
2022/04/03 03:32:40;;;;;;;8.23;2.70;;;-0.70;99.90;;;;;;5030641;28;20037;-81
2022/04/03 03:35:06;;;;;;;5.50;2.50;;;-0.70;99.90;;;;;;5030713;28;20068;-81
2022/04/03 03:37:32;;;;;;;7.00;2.60;;;-0.70;99.90;;;;;;5030754;28;20029;-81
2022/04/03 03:39:57;;;;;;;7.90;2.60;;;-0.70;99.90;;;;;;5030776;28;20037;-81
2022/04/03 03:42:23;;;;;;;6.85;2.63;;;-0.70;99.90;;;;;;5030651;28;20544;-81
2022/04/03 03:44:49;;;;;;;8.15;2.80;;;-0.70;99.90;;;;;;5014242;28;20041;-81
2022/04/03 03:47:14;;;;;;;6.95;2.45;;;-0.70;99.90;;;;;;5030777;28;20038;-81
2022/04/03 03:49:40;;;;;;;7.68;2.70;;;-0.70;99.90;;;;;;5030208;28;20498;-81
2022/04/03 03:52:06;;;;;;;8.40;3.08;;;-0.70;99.90;;;;;;5030385;28;20076;-81
2022/04/03 03:54:32;;;;;;;7.85;2.30;;;-0.70;99.90;;;;;;5030636;28;20103;-81
2022/04/03 03:56:58;;;;;;;7.20;2.33;;;-0.70;99.90;;;;;;5030407;28;20459;-81
2022/04/03 03:59:24;;;;;;;9.25;2.78;;;-0.70;99.90;;;;;;5013939;28;20449;-81
2022/04/03 04:01:50;;;;;;;10.88;3.65;;;-0.70;99.90;;;;;;5013775;28;20038;-81
2022/04/03 04:04:15;;;;;;;6.90;2.63;;;-0.60;99.90;;;;;;5030725;28;20045;-81
2022/04/03 04:06:41;;;;;;;7.15;2.80;;;-0.60;99.90;;;;;;5030652;28;20038;-81
2022/04/03 04:09:06;;;;;;;8.30;2.67;;;-0.50;99.90;;;;;;5030564;28;20037;-81
2022/04/03 04:11:32;;;;;;;7.32;2.85;;;-0.50;99.90;;;;;;5030080;28;20088;-81
2022/04/03 04:13:58;;;;;;;7.20;2.75;;;-0.40;99.90;;;;;;5030536;28;20514;-81
2022/04/03 04:16:24;;;;;;;8.20;3.17;;;-0.40;99.90;;;;;;5030210;28;20041;-81
2022/04/03 04:18:50;;;;;;;6.60;2.50;;;-0.30;99.90;;;;;;5013923;28;20044;-81
2022/04/03 04:21:17;;;;;;;9.95;2.85;;;-0.30;99.90;;;;;;5029756;28;20068;-81
2022/04/03 04:23:42;;;;;;;8.68;3.10;;;-0.20;99.90;;;;;;5013636;28;20048;-81
2022/04/03 04:26:08;;;;;;;8.18;2.90;;;-0.20;99.90;;;;;;5030635;28;20399;-81
2022/04/03 04:28:35;;;;;;;6.95;2.88;;;-0.10;99.90;;;;;;5029910;28;20045;-81
2022/04/03 04:31:01;;;;;;;6.50;2.70;;;-0.10;99.90;;;;;;5029845;28;20491;-81
2022/04/03 04:33:26;;;;;;;8.60;4.03;;;-0.10;99.90;;;;;;5029994;28;20091;-81
2022/04/03 04:35:52;;;;;;;8.52;3.15;;;-0.10;99.90;;;;;;5034038;28;20045;-81
2022/04/03 04:38:18;;;;;;;8.95;2.70;;;-0.10;99.90;;;;;;5034089;28;20049;-81
2022/04/03 04:40:44;;;;;;;7.90;3.28;;;0.00;99.90;;;;;;5033803;28;20044;-81
2022/04/03 04:43:10;;;;;;;7.93;3.10;;;0.00;99.90;;;;;;5017288;28;20459;-81
2022/04/03 04:45:36;;;;;;;8.55;3.00;;;0.10;99.90;;;;;;5034143;28;20095;-81
2022/04/03 04:48:02;;;;;;;7.50;2.83;;;0.10;99.90;;;;;;5017644;28;20029;-81
2022/04/03 04:50:29;;;;;;;7.15;2.90;;;0.10;99.90;;;;;;5016880;28;20503;-81
2022/04/03 04:52:56;;;;;;;8.23;2.80;;;0.20;99.90;;;;;;5033558;28;20435;-81
2022/04/03 04:55:23;;;;;;;9.00;3.08;;;0.20;99.90;;;;;;5033716;28;20045;-81
2022/04/03 04:57:54;;;;;;;8.05;2.95;;;0.20;99.90;;;;;;5033736;28;20045;-81
2022/04/03 05:00:22;;;;;;;7.32;2.70;;;0.30;99.90;;;;;;5016970;28;20045;-80
2022/04/03 05:02:48;;;;;;;7.75;3.10;;;0.30;99.90;;;;;;5033461;28;20128;-82
2022/04/03 05:05:15;;;;;;;9.73;3.30;;;0.30;99.90;;;;;;5033585;28;20045;-81
2022/04/03 05:07:45;;;;;;;7.70;2.70;;;0.40;99.90;;;;;;5033669;28;20056;-81
2022/04/03 05:10:14;;;;;;;9.13;2.90;;;0.40;99.90;;;;;;5016695;28;20087;-81
2022/04/03 05:12:40;;;;;;;9.45;3.00;;;0.40;99.90;;;;;;5033162;28;20395;-81
2022/04/03 05:15:08;;;;;;;9.07;3.03;;;0.40;99.90;;;;;;5033588;28;20044;-81
2022/04/03 05:17:34;;;;;;;7.88;2.95;;;0.40;99.90;;;;;;5048870;28;20041;-81
2022/04/03 05:19:59;;;;;;;5.68;2.60;;;0.50;99.90;;;;;;5052550;28;20039;-81
2022/04/03 05:22:26;;;;;;;9.10;3.33;;;0.50;99.90;;;;;;5052682;28;20409;-81
2022/04/03 05:24:52;;;;;;;8.02;3.08;;;0.50;99.90;;;;;;5052610;28;20052;-81
2022/04/03 05:27:17;;;;;;;8.80;3.15;;;0.60;99.90;;;;;;5052656;28;20049;-82
2022/04/03 05:29:43;;;;;;;8.30;3.15;;;0.50;99.90;;;;;;5052536;28;20080;-81
2022/04/03 05:32:09;;;;;;;9.32;3.33;;;0.60;99.90;;;;;;5035992;28;20037;-82
2022/04/03 05:34:34;;;;;;;8.07;3.35;;;0.60;99.90;;;;;;5036019;28;20045;-80
2022/04/03 05:37:00;;;;;;;7.80;2.85;;;0.60;99.90;;;;;;5052163;28;20029;-81
2022/04/03 05:39:25;;;;;;;8.05;2.90;;;0.60;99.90;;;;;;5052350;28;20037;-80
2022/04/03 05:41:54;;;;;;;8.80;3.50;;;0.60;99.90;;;;;;5052178;28;20049;-81
2022/04/03 05:44:20;;;;;;;6.95;2.78;;;0.60;99.90;;;;;;5052558;28;20049;-81
2022/04/03 05:46:45;;;;;;;10.00;3.35;;;0.60;99.90;;;;;;5051486;28;20135;-81
2022/04/03 05:49:11;;;;;;;8.18;3.10;;;0.70;99.90;;;;;;5052354;28;20502;-82
2022/04/03 05:51:37;;;;;;;9.50;3.10;;;0.70;99.90;;;;;;5051855;28;20220;-81
2022/04/03 05:54:03;;;;;;;8.65;3.08;;;0.70;99.90;;;;;;5052184;28;20052;-81
2022/04/03 05:56:31;;;;;;;8.63;3.38;;;0.80;99.90;;;;;;5052454;28;20032;-81
2022/04/03 05:58:57;;;;;;;9.15;3.95;;;0.80;99.90;;;;;;5052086;28;20072;-81
2022/04/03 06:01:22;;;;;;;9.75;4.28;;;0.80;99.90;;;;;;5051990;28;20069;-81
2022/04/03 06:03:48;;;;;;;14.70;3.50;;;0.80;99.90;;;;;;5035655;28;20537;-81
2022/04/03 06:06:14;;;;;;;7.95;3.70;;;0.80;99.90;;;;;;5051807;28;20132;-81
2022/04/03 06:08:40;;;;;;;9.60;3.63;;;0.80;99.90;;;;;;5052309;28;20064;-81
2022/04/03 06:11:06;;;;;;;9.40;3.72;;;0.80;99.90;;;;;;5051469;28;20502;-81
2022/04/03 06:13:32;;;;;;;9.43;3.10;;;0.80;99.90;;;;;;5051955;28;20384;-81
2022/04/03 06:15:57;;;;;;;7.47;3.13;;;0.90;99.90;;;;;;5052000;28;20094;-81
2022/04/03 06:18:23;;;;;;;9.20;3.80;;;0.90;99.90;;;;;;5052178;28;20044;-81
2022/04/03 06:20:51;;;;;;;8.38;3.10;;;0.90;99.90;;;;;;5035519;28;20045;-81
2022/04/03 06:23:22;;;;;;;9.73;3.67;;;0.90;99.90;;;;;;5034696;28;20052;-81
2022/04/03 06:25:54;;;;;;;9.35;3.88;;;1.00;99.90;;;;;;5049162;28;20124;-81
2022/04/03 06:28:19;;;;;;;7.32;3.53;;;1.00;99.90;;;;;;5015350;28;20045;-81
2022/04/03 06:30:46;;;;;;;8.05;3.10;;;1.00;99.90;;;;;;5015381;28;20040;-81
2022/04/03 06:33:12;;;;;;;8.63;3.88;;;1.10;99.90;;;;;;5015329;28;20104;-81
2022/04/03 06:35:38;;;;;;;8.60;3.28;;;1.10;99.90;;;;;;5031538;28;20029;-80
2022/04/03 06:38:04;;;;;;;9.30;3.50;;;1.10;99.90;;;;;;5031934;28;20091;-80
2022/04/03 06:40:32;;;;;;;11.35;4.93;;;1.20;99.90;;;;;;5031238;28;20069;-81
2022/04/03 06:42:57;;;;;;;8.73;3.60;;;1.30;99.90;;;;;;5031124;28;20117;-81
2022/04/03 06:45:24;;;;;;;8.20;3.83;;;1.30;99.90;;;;;;5031151;28;20468;-81
2022/04/03 06:47:50;;;;;;;7.60;3.85;;;1.40;99.90;;;;;;5015013;28;20049;-81
2022/04/03 06:50:15;;;;;;;9.05;3.63;;;1.40;99.90;;;;;;5030922;28;20033;-81
2022/04/03 06:52:41;;;;;;;7.88;3.80;;;1.50;99.90;;;;;;5030995;28;20095;-81
2022/04/03 06:55:08;;;;;;;10.98;4.00;;;1.50;99.90;;;;;;5031273;28;20124;-80
2022/04/03 06:57:34;;;;;;;8.32;4.38;;;1.60;99.90;;;;;;5014310;28;20042;-81
2022/04/03 06:59:59;;;;;;;8.32;3.55;;;1.70;99.90;;;;;;5030947;28;20116;-81
2022/04/03 07:02:25;;;;;;;9.93;3.45;;;1.80;99.90;;;;;;5030919;28;20045;-81
2022/04/03 07:04:51;;;;;;;8.35;4.13;;;1.80;99.90;;;;;;5030978;28;20049;-81
2022/04/03 07:07:22;;;;;;;9.55;3.55;;;1.90;99.90;;;;;;5031043;28;20045;-81
2022/04/03 07:09:47;;;;;;;9.73;3.80;;;1.90;99.90;;;;;;5014273;28;20041;-81
2022/04/03 07:12:14;;;;;;;9.38;3.80;;;2.00;99.90;;;;;;5030767;28;20111;-80
2022/04/03 07:14:40;;;;;;;9.57;4.32;;;2.00;99.90;;;;;;5013345;28;20068;-81
2022/04/03 07:17:05;;;;;;;10.18;3.83;;;2.10;99.90;;;;;;5031074;28;20398;-81
2022/04/03 07:19:31;;;;;;;9.20;3.80;;;2.10;99.90;;;;;;5030577;28;20521;-81
2022/04/03 07:21:57;;;;;;;7.82;3.83;;;2.20;99.90;;;;;;5030663;28;20379;-81
2022/04/03 07:24:24;;;;;;;10.45;3.20;;;2.40;99.90;;;;;;5030680;28;20120;-81
2022/04/03 07:26:49;;;;;;;7.93;3.75;;;2.50;99.90;;;;;;5030803;28;20116;-81
2022/04/03 07:29:15;;;;;;;6.93;3.00;;;2.60;99.90;;;;;;5014421;28;20449;-82
2022/04/03 07:31:41;;;;;;;10.48;3.10;;;2.80;99.90;;;;;;5030223;28;20056;-81
2022/04/03 07:34:07;;;;;;;7.95;2.85;;;2.90;99.90;;;;;;5030951;28;20029;-81
2022/04/03 07:36:32;;;;;;;9.35;2.33;;;3.10;99.90;;;;;;5030910;28;20487;-81
2022/04/03 07:39:00;;;;;;;7.05;2.42;;;3.20;99.90;;;;;;5030513;28;20418;-81
2022/04/03 07:41:26;;;;;;;7.38;2.00;;;3.30;99.90;;;;;;5030413;28;20499;-81
2022/04/03 07:43:51;;;;;;;7.53;2.35;;;3.50;99.90;;;;;;5030348;28;20048;-82
2022/04/03 07:46:17;;;;;;;7.35;2.17;;;3.70;99.90;;;;;;5030302;28;20077;-81
2022/04/03 07:48:44;;;;;;;6.47;2.10;;;3.90;99.90;;;;;;5030323;28;20758;-81
2022/04/03 07:51:10;;;;;;;10.50;2.50;;;4.00;99.90;;;;;;5029947;28;20453;-81
2022/04/03 07:53:36;;;;;;;7.18;2.85;;;4.20;99.90;;;;;;5030502;28;20044;-81
2022/04/03 07:56:02;;;;;;;5.70;2.15;;;4.30;99.90;;;;;;5030292;28;20049;-81
2022/04/03 07:58:28;;;;;;;6.18;2.03;;;4.50;99.90;;;;;;5030433;28;20040;-81
2022/04/03 08:00:53;;;;;;;6.40;1.70;;;4.70;99.90;;;;;;5029909;28;20125;-82
2022/04/03 08:03:19;;;;;;;7.55;2.15;;;4.90;99.90;;;;;;5030126;28;20076;-81
2022/04/03 08:05:45;;;;;;;6.38;1.77;;;5.00;99.90;;;;;;5030515;28;20414;-81
2022/04/03 08:08:10;;;;;;;5.70;1.83;;;5.10;99.90;;;;;;5031092;28;20045;-80
2022/04/03 08:10:36;;;;;;;6.82;1.83;;;5.20;99.90;;;;;;5029580;28;20041;-81
2022/04/03 08:13:02;;;;;;;9.43;2.70;;;5.30;99.90;;;;;;5030017;28;20128;-81
2022/04/03 08:15:28;;;;;;;10.35;2.03;;;5.40;99.90;;;;;;5030167;28;20419;-82
2022/04/03 08:17:54;;;;;;;6.57;2.00;;;5.40;99.90;;;;;;5030135;28;20124;-81
2022/04/03 08:20:20;;;;;;;5.82;1.67;;;5.40;99.90;;;;;;5029141;28;20044;-81
2022/04/03 08:22:47;;;;;;;8.95;2.20;;;5.40;99.90;;;;;;5031349;28;20052;-81
2022/04/03 08:25:13;;;;;;;9.50;2.70;;;5.50;99.90;;;;;;5013395;28;20509;-82
2022/04/03 08:27:57;;;;;;;8.48;2.40;;;5.50;99.90;;;;;;5030100;28;20095;-82
2022/04/03 08:30:28;;;;;;;6.72;1.80;;;5.60;99.90;;;;;;5029849;28;20120;-81
2022/04/03 08:32:54;;;;;;;9.82;2.22;;;5.70;99.90;;;;;;5029891;28;20175;-81
2022/04/03 08:35:22;;;;;;;6.47;1.63;;;5.90;99.90;;;;;;5030435;28;20034;-81
2022/04/03 08:37:50;;;;;;;5.70;1.77;;;6.00;99.90;;;;;;5029772;28;20064;-81
2022/04/03 08:40:17;;;;;;;7.55;1.63;;;6.20;99.90;;;;;;5013311;28;20045;-82
2022/04/03 08:42:43;;;;;;;5.93;1.70;;;6.40;99.90;;;;;;5029891;28;20111;-82
2022/04/03 08:45:12;;;;;;;5.90;1.40;;;6.60;99.90;;;;;;5013347;28;20041;-82
2022/04/03 08:47:46;;;;;;;8.35;1.70;;;6.80;99.90;;;;;;5029928;28;20041;-81
2022/04/03 08:50:14;;;;;;;3.70;1.40;;;6.90;99.90;;;;;;5029617;28;20052;-82
2022/04/03 08:52:44;;;;;;;7.22;1.50;;;7.00;99.90;;;;;;5029724;28;20684;-81
2022/04/03 08:55:10;;;;;;;5.15;1.55;;;7.20;99.90;;;;;;5029587;28;20083;-81
2022/04/03 08:57:36;;;;;;;9.75;2.33;;;7.30;99.90;;;;;;5030020;28;20395;-82
2022/04/03 09:00:03;;;;;;;8.10;1.80;;;7.30;99.90;;;;;;5029448;28;20037;-82
2022/04/03 09:02:29;;;;;;;5.72;1.73;;;7.40;99.90;;;;;;5012548;28;20511;-82
2022/04/03 09:04:55;;;;;;;3.13;1.10;;;7.50;99.90;;;;;;5009772;28;20084;-82
2022/04/03 09:07:20;;;;;;;5.38;1.30;;;7.70;99.90;;;;;;5009883;28;20377;-82
2022/04/03 09:10:00;;;;;;;6.32;1.40;;;7.70;99.90;;;;;;4993419;28;20411;-82
2022/04/03 09:12:26;;;;;;;4.95;1.30;;;7.80;99.90;;;;;;5009885;28;20415;-81
2022/04/03 09:14:56;;;;;;;4.60;1.17;;;7.90;99.90;;;;;;5010274;28;20037;-81
2022/04/03 09:17:37;;;;;;;4.43;1.30;;;8.00;99.90;;;;;;5009848;28;20529;-82
2022/04/03 09:20:09;;;;;;;4.82;1.30;;;8.00;99.50;;;;;;5010258;28;20065;-81
2022/04/03 09:22:36;;;;;;;3.35;1.10;;;8.10;99.40;;;;;;5013261;28;20053;-81
2022/04/03 09:25:04;;;;;;;4.28;1.13;;;8.20;99.50;;;;;;5026419;28;20521;-81
2022/04/03 09:27:33;;;;;;;4.68;1.30;;;8.40;99.70;;;;;;5032404;28;20087;-81
2022/04/03 09:30:07;;;;;;;6.95;1.20;;;8.50;98.90;;;;;;5031624;28;20049;-81
2022/04/03 09:32:33;;;;;;;7.15;1.27;;;8.50;97.70;;;;;;5032451;28;20071;-82
2022/04/03 09:34:59;;;;;;;3.35;1.20;;;8.50;97.90;;;;;;5032833;28;20825;-82
2022/04/03 09:37:26;;;;;;;3.85;1.30;;;8.50;97.60;;;;;;5033049;28;20124;-82
2022/04/03 09:39:53;;;;;;;4.55;1.10;;;8.50;97.20;;;;;;5016156;28;20041;-82
2022/04/03 09:42:19;;;;;;;6.70;1.10;;;8.50;97.20;;;;;;5032179;28;20049;-81
2022/04/03 09:44:46;;;;;;;7.30;1.40;;;8.60;97.30;;;;;;5032688;28;20048;-82
2022/04/03 09:47:26;;;;;;;6.35;1.40;;;8.80;97.10;;;;;;5015828;28;20038;-82
2022/04/03 09:49:55;;;;;;;4.47;1.20;;;9.00;96.60;;;;;;5032316;28;20413;-81
2022/04/03 09:52:41;;;;;;;6.07;1.20;;;9.00;96.20;;;;;;5031264;28;20042;-82
2022/04/03 09:55:17;;;;;;;6.35;1.13;;;9.00;95.40;;;;;;5031532;28;20052;-80
2022/04/03 09:57:44;;;;;;;5.93;1.25;;;9.00;95.60;;;;;;5011194;28;20092;-80
2022/04/03 10:00:10;;;;;;;4.90;1.10;;;9.00;95.30;;;;;;5033343;28;20630;-80
2022/04/03 10:02:35;;;;;;;5.07;1.20;;;9.00;95.10;;;;;;5032867;28;20038;-81
2022/04/03 10:05:01;;;;;;;5.13;1.60;;;9.00;94.80;;;;;;5032199;28;20495;-80
2022/04/03 10:07:30;;;;;;;4.47;1.10;;;9.00;94.40;;;;;;5032351;28;20120;-82
2022/04/03 10:09:56;;;;;;;4.53;1.33;;;9.10;93.90;;;;;;5032115;28;20072;-81
2022/04/03 10:12:23;;;;;;;4.60;1.20;;;9.10;93.80;;;;;;5015159;28;20045;-81
2022/04/03 10:14:50;;;;;;;4.85;1.15;;;9.20;93.70;;;;;;5015446;28;20044;-81
2022/04/03 10:17:18;;;;;;;4.32;1.25;;;9.20;93.80;;;;;;5032024;28;20045;-82
2022/04/03 10:19:44;;;;;;;7.07;1.33;;;9.30;94.00;;;;;;5015269;28;20041;-82
2022/04/03 10:22:25;;;;;;;5.05;1.23;;;9.60;93.60;;;;;;5031853;28;20159;-82
2022/04/03 10:24:54;;;;;;;5.63;1.45;;;9.90;93.80;;;;;;5031616;28;20057;-82
2022/04/03 10:27:27;;;;;;;4.38;1.15;;;10.20;93.30;;;;;;5015202;28;20046;-82
2022/04/03 10:29:57;;;;;;;7.15;1.30;;;10.40;92.70;;;;;;5015253;28;20045;-81
2022/04/03 10:32:27;;;;;;;5.63;1.20;;;10.30;88.30;;;;;;5032370;28;20463;-82
2022/04/03 10:34:57;;;;;;;5.85;1.35;;;9.90;86.70;;;;;;5031964;28;20061;-82
2022/04/03 10:37:32;;;;;;;3.80;1.15;;;9.60;86.30;;;;;;5031636;28;20045;-82
2022/04/03 10:40:04;;;;;;;4.55;0.98;;;9.30;88.10;;;;;;5031476;28;20041;-81
2022/04/03 10:42:30;;;;;;;5.35;1.45;;;9.20;90.30;;;;;;5031570;28;20048;-82
2022/04/03 10:45:11;;;;;;;3.67;0.95;;;9.20;90.70;;;;;;5031298;28;20453;-82
2022/04/03 10:47:37;;;;;;;2.88;0.70;;;9.30;90.20;;;;;;5031453;28;20134;-82
2022/04/03 10:50:04;;;;;;;3.35;1.20;;;9.40;89.20;;;;;;5014928;28;20045;-81
2022/04/03 10:52:39;;;;;;;4.00;0.90;;;9.50;89.00;;;;;;5014765;28;20045;-81
2022/04/03 10:55:23;;;;;;;4.60;1.00;;;9.70;89.80;;;;;;5031700;28;20507;-83
2022/04/03 10:57:51;;;;;;;4.55;1.35;;;9.80;90.10;;;;;;5031337;28;20037;-82
2022/04/03 11:00:19;;;;;;;3.45;1.10;;;9.90;89.90;;;;;;5030712;28;20034;-82
2022/04/03 11:02:51;;;;;;;3.30;1.10;;;10.00;89.50;;;;;;5031151;28;20518;-80
2022/04/03 11:05:25;;;;;;;4.97;0.90;;;10.20;89.30;;;;;;5014351;28;20047;-81
2022/04/03 11:08:11;;;;;;;3.55;0.93;;;10.40;89.10;;;;;;5014562;28;20041;-81
2022/04/03 11:10:59;;;;;;;3.20;0.80;;;10.50;81.20;;;;;;5031667;28;20518;-81
2022/04/03 11:13:31;;;;;;;2.97;0.90;;;10.50;85.70;;;;;;5014382;28;20056;-81
2022/04/03 11:16:04;;;;;;;4.22;1.52;;;10.40;83.10;;;;;;5031069;28;20033;-81
2022/04/03 11:18:32;;;;;;;3.60;1.00;;;10.50;82.50;;;;;;5014286;28;20048;-81
2022/04/03 11:21:08;;;;;;;4.95;1.00;;;10.50;81.30;;;;;;5030424;28;20037;-81
2022/04/03 11:23:46;;;;;;;4.03;1.05;;;10.60;78.40;;;;;;5030620;28;20183;-82
2022/04/03 11:26:12;;;;;;;2.20;0.93;;;10.60;78.70;;;;;;5014337;28;20571;-82
2022/04/03 11:28:39;;;;;;;3.45;0.90;;;10.60;77.70;;;;;;5030987;28;20076;-82
2022/04/03 11:31:05;;;;;;;3.55;0.90;;;10.60;78.70;;;;;;5030444;28;20495;-82
2022/04/03 11:33:32;;;;;;;5.38;0.98;;;10.60;78.50;;;;;;5030695;28;20041;-82
2022/04/03 11:36:12;;;;;;;4.47;1.00;;;10.70;77.80;;;;;;5031082;28;20033;-82
2022/04/03 11:38:40;;;;;;;4.13;0.88;;;10.70;76.50;;;;;;5030676;28;20073;-81
2022/04/03 11:41:09;;;;;;;4.07;1.00;;;10.80;76.60;;;;;;5013967;28;20068;-81
2022/04/03 11:43:35;;;;;;;2.47;0.77;;;10.90;76.60;;;;;;5013536;28;20084;-82
2022/04/03 11:46:03;;;;;;;4.63;0.90;;;10.90;76.00;;;;;;5030626;28;20076;-81
2022/04/03 11:48:31;;;;;;;3.13;0.85;;;11.00;75.40;;;;;;5014286;28;20041;-81
2022/04/03 11:51:09;;;;;;;2.00;0.70;;;10.90;73.20;;;;;;5030094;28;20521;-81
2022/04/03 11:53:35;;;;;;;3.78;1.05;;;10.80;72.10;;;;;;5014082;28;20077;-82
2022/04/03 11:56:08;;;;;;;4.00;1.10;;;10.90;74.20;;;;;;5013817;28;20037;-81
2022/04/03 11:58:37;;;;;;;5.75;1.05;;;11.00;74.50;;;;;;5030220;28;20136;-82
2022/04/03 12:01:03;;;;;;;4.40;0.90;;;11.00;73.60;;;;;;5030223;28;20037;-81
2022/04/03 12:03:29;;;;;;;4.93;1.25;;;10.90;72.70;;;;;;5013956;28;20038;-82
2022/04/03 12:06:17;;;;;;;3.03;0.95;;;11.00;74.20;;;;;;5030516;28;20041;-82
2022/04/03 12:08:48;;;;;;;1.98;0.77;;;11.30;72.80;;;;;;5013911;28;20568;-82
2022/04/03 12:11:25;;;;;;;4.22;0.77;;;11.20;67.50;;;;;;5029746;28;20045;-81
2022/04/03 12:13:52;;;;;;;1.95;0.70;;;11.00;66.50;;;;;;5030158;28;20395;-81
2022/04/03 12:16:22;;;;;;;5.35;0.93;;;11.00;67.00;;;;;;5029790;28;20038;-82
2022/04/03 12:19:02;;;;;;;2.15;0.90;;;11.20;66.40;;;;;;5014116;28;20065;-82
2022/04/03 12:21:42;;;;;;;3.25;0.80;;;11.30;65.80;;;;;;5029674;28;20136;-82
2022/04/03 12:24:20;;;;;;;7.22;2.05;;;11.40;66.50;;;;;;5030119;28;20560;-82
2022/04/03 12:26:47;;;;;;;3.83;0.93;;;11.50;66.70;;;;;;5013730;28;20145;-82
2022/04/03 12:29:13;;;;;;;2.55;0.80;;;11.50;66.00;;;;;;5030282;28;20495;-81
2022/04/03 12:31:40;;;;;;;3.25;0.88;;;11.50;65.40;;;;;;5013342;28;20052;-82
2022/04/03 12:34:15;;;;;;;2.95;0.70;;;11.60;65.50;;;;;;5029979;28;20519;-82
2022/04/03 12:36:41;;;;;;;4.13;0.90;;;11.60;65.60;;;;;;5030160;28;20041;-81
2022/04/03 12:39:40;;;;;;;3.60;1.00;;;11.60;66.20;;;;;;5013638;28;20116;-81
2022/04/03 12:42:31;;;;;;;4.90;1.10;;;11.60;66.90;;;;;;5029862;28;20049;-81
2022/04/03 12:44:56;;;;;;;3.50;0.98;;;11.60;67.20;;;;;;5013734;28;20041;-81
2022/04/03 12:47:42;;;;;;;4.00;1.00;;;11.60;67.50;;;;;;5030004;28;20046;-81
2022/04/03 12:50:12;;;;;;;2.92;0.70;;;11.60;67.20;;;;;;5029551;28;20505;-81
2022/04/03 12:52:50;;;;;;;3.72;0.98;;;11.50;66.70;;;;;;5029424;28;20046;-81
2022/04/03 12:55:24;;;;;;;3.28;0.80;;;11.50;64.10;;;;;;5031380;28;20710;-81